KCRE

Grand Strand Airport

North Myrtle Beach, South Carolina, USA
METAR KCRE 201853Z 26011G16KT 10SM SCT031 BKN038 OVC065 27/20 A2985 RMK AO1 SLP108 T02670200
Observed Flight Rules
Oct-20 @ 18:53 UTC (28 minutes ago) Visual Flight Rules
Wind Visibility Clouds
260° at 11 knots
 Gusting to 16 knots
10 miles
  • Scattered at 3,100' AGL
  • Broken at 3,800' AGL
  • Overcast at 6,500' AGL
Temperatures Readings
Current 27°C / 81°F
Dewpoint 20°C / 68°F
Humidity 66%
Altimeter 29.85" Hg
Pressure 1010.8 hPa
Elevation 10
METAR KCRE 201853Z 26011G16KT 10SM SCT031 BKN038 OVC065 27/20 A2985 RMK AO1 SLP108 T02670200
Observed Flight Rules
Oct-20 @ 18:53 UTC
(28 minutes ago)
VFR
Wind Visibility
260° at 11 knots
 Gusting to 16 knots
10 miles
Clouds
  • Scattered at 3,100' AGL
  • Broken at 3,800' AGL
  • Overcast at 6,500' AGL
Temperature Dewpoint
27°C / 81°F 20°C / 68°F
Humidity Altimeter Pressure
66% 29.85" Hg 1010.8 hPa